sensor_id;sensor_type;location;lat;lon;timestamp;pressure;altitude;pressure_sealevel;temperature;humidity
45357;BME280;31092;51.924;21.448;2023-07-16T00:00:14;99986.47;;;17.32;100.00
45357;BME280;31092;51.924;21.448;2023-07-16T00:02:40;99987.94;;;17.34;100.00
45357;BME280;31092;51.924;21.448;2023-07-16T00:05:06;99979.41;;;17.24;100.00
45357;BME280;31092;51.924;21.448;2023-07-16T00:07:32;99978.97;;;17.27;100.00
45357;BME280;31092;51.924;21.448;2023-07-16T00:10:06;99948.50;;;17.05;100.00
45357;BME280;31092;51.924;21.448;2023-07-16T00:12:32;99933.69;;;16.94;100.00
45357;BME280;31092;51.924;21.448;2023-07-16T00:15:17;100001.78;;;17.33;100.00
45357;BME280;31092;51.924;21.448;2023-07-16T00:17:46;100003.44;;;17.34;100.00
45357;BME280;31092;51.924;21.448;2023-07-16T00:20:12;99999.06;;;17.33;100.00
45357;BME280;31092;51.924;21.448;2023-07-16T00:22:38;99980.44;;;17.23;100.00
45357;BME280;31092;51.924;21.448;2023-07-16T00:25:07;99951.22;;;17.05;100.00
45357;BME280;31092;51.924;21.448;2023-07-16T00:27:32;99977.97;;;17.15;100.00
45357;BME280;31092;51.924;21.448;2023-07-16T00:30:01;99980.06;;;17.13;100.00
45357;BME280;31092;51.924;21.448;2023-07-16T00:32:27;100006.63;;;17.17;100.00
45357;BME280;31092;51.924;21.448;2023-07-16T00:35:02;99995.75;;;17.11;100.00
45357;BME280;31092;51.924;21.448;2023-07-16T00:37:28;99981.56;;;17.02;100.00
45357;BME280;31092;51.924;21.448;2023-07-16T00:39:53;99999.97;;;17.07;100.00
45357;BME280;31092;51.924;21.448;2023-07-16T00:42:19;99931.81;;;16.68;100.00
45357;BME280;31092;51.924;21.448;2023-07-16T00:44:45;99999.56;;;17.03;100.00
45357;BME280;31092;51.924;21.448;2023-07-16T00:47:31;99925.59;;;16.55;100.00
45357;BME280;31092;51.924;21.448;2023-07-16T00:49:57;99912.63;;;16.50;100.00
45357;BME280;31092;51.924;21.448;2023-07-16T00:52:23;99979.94;;;16.88;100.00
45357;BME280;31092;51.924;21.448;2023-07-16T00:54:48;99973.69;;;16.81;100.00
45357;BME280;31092;51.924;21.448;2023-07-16T00:57:15;99986.22;;;16.88;100.00
45357;BME280;31092;51.924;21.448;2023-07-16T00:59:44;99951.09;;;16.60;100.00
45357;BME280;31092;51.924;21.448;2023-07-16T01:02:41;100005.66;;;16.92;100.00
45357;BME280;31092;51.924;21.448;2023-07-16T01:05:07;99879.03;;;16.18;100.00
45357;BME280;31092;51.924;21.448;2023-07-16T01:07:33;99984.16;;;16.77;100.00
45357;BME280;31092;51.924;21.448;2023-07-16T01:10:00;99930.00;;;16.42;100.00
45357;BME280;31092;51.924;21.448;2023-07-16T01:12:33;99912.88;;;16.28;100.00
45357;BME280;31092;51.924;21.448;2023-07-16T01:14:59;99995.63;;;16.72;100.00
45357;BME280;31092;51.924;21.448;2023-07-16T01:17:25;99991.44;;;16.70;100.00
45357;BME280;31092;51.924;21.448;2023-07-16T01:19:50;99908.31;;;16.16;100.00
45357;BME280;31092;51.924;21.448;2023-07-16T01:22:47;99998.97;;;16.68;100.00
45357;BME280;31092;51.924;21.448;2023-07-16T01:28:21;99924.16;;;16.25;100.00
45357;BME280;31092;51.924;21.448;2023-07-16T01:30:52;99985.19;;;16.63;100.00
45357;BME280;31092;51.924;21.448;2023-07-16T01:33:21;99913.31;;;16.19;100.00
45357;BME280;31092;51.924;21.448;2023-07-16T01:35:47;99978.50;;;16.52;100.00
45357;BME280;31092;51.924;21.448;2023-07-16T01:38:14;99906.66;;;16.08;100.00
45357;BME280;31092;51.924;21.448;2023-07-16T01:40:41;99966.81;;;16.45;100.00
45357;BME280;31092;51.924;21.448;2023-07-16T01:43:07;99931.47;;;16.25;100.00
45357;BME280;31092;51.924;21.448;2023-07-16T01:45:36;99961.78;;;16.42;100.00
45357;BME280;31092;51.924;21.448;2023-07-16T01:48:30;99976.00;;;16.50;100.00
45357;BME280;31092;51.924;21.448;2023-07-16T01:50:56;99964.28;;;16.43;100.00
45357;BME280;31092;51.924;21.448;2023-07-16T01:53:22;99825.75;;;15.57;100.00
45357;BME280;31092;51.924;21.448;2023-07-16T01:55:47;99902.66;;;16.04;100.00
45357;BME280;31092;51.924;21.448;2023-07-16T01:58:13;99976.00;;;16.50;100.00
45357;BME280;31092;51.924;21.448;2023-07-16T02:00:49;99965.16;;;16.44;100.00
45357;BME280;31092;51.924;21.448;2023-07-16T02:03:15;99978.28;;;16.53;100.00
45357;BME280;31092;51.924;21.448;2023-07-16T02:05:49;99982.25;;;16.58;100.00
45357;BME280;31092;51.924;21.448;2023-07-16T02:08:22;99903.06;;;16.14;100.00
45357;BME280;31092;51.924;21.448;2023-07-16T02:10:48;99944.41;;;16.49;100.00
45357;BME280;31092;51.924;21.448;2023-07-16T02:13:14;99963.22;;;16.64;100.00
45357;BME280;31092;51.924;21.448;2023-07-16T02:15:40;99876.13;;;16.19;100.00
45357;BME280;31092;51.924;21.448;2023-07-16T02:18:06;99963.03;;;16.79;100.00
45357;BME280;31092;51.924;21.448;2023-07-16T02:20:31;99933.28;;;16.71;100.00
45357;BME280;31092;51.924;21.448;2023-07-16T02:22:57;99959.00;;;16.95;100.00
45357;BME280;31092;51.924;21.448;2023-07-16T02:25:23;99952.06;;;16.99;100.00
45357;BME280;31092;51.924;21.448;2023-07-16T02:27:50;99879.78;;;16.58;100.00
45357;BME280;31092;51.924;21.448;2023-07-16T02:30:16;99953.31;;;17.03;100.00
45357;BME280;31092;51.924;21.448;2023-07-16T02:32:42;99954.53;;;17.07;100.00
45357;BME280;31092;51.924;21.448;2023-07-16T02:35:13;99875.38;;;16.57;100.00
45357;BME280;31092;51.924;21.448;2023-07-16T02:37:39;99897.75;;;16.72;100.00
45357;BME280;31092;51.924;21.448;2023-07-16T02:40:06;99938.47;;;16.99;100.00
45357;BME280;31092;51.924;21.448;2023-07-16T02:42:34;99873.47;;;16.64;100.00
45357;BME280;31092;51.924;21.448;2023-07-16T02:45:00;99896.69;;;16.80;100.00
45357;BME280;31092;51.924;21.448;2023-07-16T02:47:26;99929.88;;;17.02;100.00
45357;BME280;31092;51.924;21.448;2023-07-16T02:49:52;99878.06;;;16.70;100.00
45357;BME280;31092;51.924;21.448;2023-07-16T02:52:17;99934.06;;;17.05;100.00
45357;BME280;31092;51.924;21.448;2023-07-16T02:54:43;99913.16;;;16.98;100.00
45357;BME280;31092;51.924;21.448;2023-07-16T02:57:09;99926.72;;;17.05;100.00
45357;BME280;31092;51.924;21.448;2023-07-16T02:59:35;99886.78;;;16.92;100.00
45357;BME280;31092;51.924;21.448;2023-07-16T03:02:01;99933.97;;;17.18;100.00
45357;BME280;31092;51.924;21.448;2023-07-16T03:04:35;99890.75;;;16.96;100.00
45357;BME280;31092;51.924;21.448;2023-07-16T03:07:01;99880.75;;;16.90;100.00
45357;BME280;31092;51.924;21.448;2023-07-16T03:09:30;99861.09;;;16.82;100.00
45357;BME280;31092;51.924;21.448;2023-07-16T03:11:55;99945.84;;;17.37;100.00
45357;BME280;31092;51.924;21.448;2023-07-16T03:14:21;99924.50;;;17.34;100.00
45357;BME280;31092;51.924;21.448;2023-07-16T03:16:47;99873.38;;;17.04;100.00
45357;BME280;31092;51.924;21.448;2023-07-16T03:19:12;99895.25;;;17.22;100.00
45357;BME280;31092;51.924;21.448;2023-07-16T03:21:38;99937.38;;;17.52;100.00
45357;BME280;31092;51.924;21.448;2023-07-16T03:24:04;99943.81;;;17.57;100.00
45357;BME280;31092;51.924;21.448;2023-07-16T03:26:33;99940.63;;;17.67;100.00
45357;BME280;31092;51.924;21.448;2023-07-16T03:28:58;99863.81;;;17.27;100.00
45357;BME280;31092;51.924;21.448;2023-07-16T03:31:24;99935.56;;;17.70;100.00
45357;BME280;31092;51.924;21.448;2023-07-16T03:33:50;99922.81;;;17.64;100.00
45357;BME280;31092;51.924;21.448;2023-07-16T03:36:20;99920.47;;;17.75;100.00
45357;BME280;31092;51.924;21.448;2023-07-16T03:38:45;99880.78;;;17.54;100.00
45357;BME280;31092;51.924;21.448;2023-07-16T03:41:11;99879.09;;;17.59;100.00
45357;BME280;31092;51.924;21.448;2023-07-16T03:43:37;99909.28;;;17.89;100.00
45357;BME280;31092;51.924;21.448;2023-07-16T03:46:24;99952.00;;;18.21;100.00
45357;BME280;31092;51.924;21.448;2023-07-16T03:48:51;99946.66;;;18.32;100.00
45357;BME280;31092;51.924;21.448;2023-07-16T03:51:16;99938.50;;;18.32;100.00
45357;BME280;31092;51.924;21.448;2023-07-16T03:53:44;99944.63;;;18.46;100.00
45357;BME280;31092;51.924;21.448;2023-07-16T03:56:10;99949.44;;;18.51;100.00
45357;BME280;31092;51.924;21.448;2023-07-16T03:58:36;99896.34;;;18.28;100.00
45357;BME280;31092;51.924;21.448;2023-07-16T04:01:02;99934.81;;;18.63;100.00
45357;BME280;31092;51.924;21.448;2023-07-16T04:03:27;99939.31;;;18.76;100.00
45357;BME280;31092;51.924;21.448;2023-07-16T04:06:03;99954.34;;;18.85;100.00
45357;BME280;31092;51.924;21.448;2023-07-16T04:08:29;99948.66;;;18.87;100.00
45357;BME280;31092;51.924;21.448;2023-07-16T04:11:01;99958.34;;;19.01;100.00
45357;BME280;31092;51.924;21.448;2023-07-16T04:13:29;99959.47;;;19.12;100.00
45357;BME280;31092;51.924;21.448;2023-07-16T04:15:55;99890.97;;;18.83;100.00
45357;BME280;31092;51.924;21.448;2023-07-16T04:18:23;99854.75;;;18.76;100.00
45357;BME280;31092;51.924;21.448;2023-07-16T04:20:49;99945.03;;;19.42;100.00
45357;BME280;31092;51.924;21.448;2023-07-16T04:23:25;99952.75;;;19.63;100.00
45357;BME280;31092;51.924;21.448;2023-07-16T04:25:55;99946.59;;;19.68;100.00
45357;BME280;31092;51.924;21.448;2023-07-16T04:28:21;99887.44;;;19.43;100.00
45357;BME280;31092;51.924;21.448;2023-07-16T04:30:47;99901.03;;;19.61;100.00
45357;BME280;31092;51.924;21.448;2023-07-16T04:33:12;99921.66;;;19.76;100.00
45357;BME280;31092;51.924;21.448;2023-07-16T04:35:45;99940.00;;;19.99;100.00
45357;BME280;31092;51.924;21.448;2023-07-16T04:38:11;99878.78;;;19.76;100.00
45357;BME280;31092;51.924;21.448;2023-07-16T04:40:37;99958.34;;;20.33;100.00
45357;BME280;31092;51.924;21.448;2023-07-16T04:43:02;99940.03;;;20.34;100.00
45357;BME280;31092;51.924;21.448;2023-07-16T04:45:28;99893.66;;;20.16;100.00
45357;BME280;31092;51.924;21.448;2023-07-16T04:47:56;99949.84;;;20.53;100.00
45357;BME280;31092;51.924;21.448;2023-07-16T04:50:25;99887.84;;;20.24;100.00
45357;BME280;31092;51.924;21.448;2023-07-16T04:52:50;99880.34;;;20.19;100.00
45357;BME280;31092;51.924;21.448;2023-07-16T04:55:23;99889.16;;;20.33;100.00
45357;BME280;31092;51.924;21.448;2023-07-16T04:57:49;99909.16;;;20.57;100.00
45357;BME280;31092;51.924;21.448;2023-07-16T05:00:18;99950.53;;;20.96;100.00
45357;BME280;31092;51.924;21.448;2023-07-16T05:02:44;99891.16;;;20.73;100.00
45357;BME280;31092;51.924;21.448;2023-07-16T05:05:10;99913.44;;;21.05;100.00
45357;BME280;31092;51.924;21.448;2023-07-16T05:07:44;99905.59;;;21.09;100.00
45357;BME280;31092;51.924;21.448;2023-07-16T05:10:16;99940.88;;;21.45;100.00
45357;BME280;31092;51.924;21.448;2023-07-16T05:12:41;99886.00;;;21.28;100.00
45357;BME280;31092;51.924;21.448;2023-07-16T05:15:08;99957.09;;;21.92;100.00
45357;BME280;31092;51.924;21.448;2023-07-16T05:17:33;99907.53;;;21.82;100.00
45357;BME280;31092;51.924;21.448;2023-07-16T05:19:59;99888.09;;;21.84;100.00
45357;BME280;31092;51.924;21.448;2023-07-16T05:22:25;99897.59;;;22.10;100.00
45357;BME280;31092;51.924;21.448;2023-07-16T05:24:50;99899.69;;;22.19;100.00
45357;BME280;31092;51.924;21.448;2023-07-16T05:27:16;99964.13;;;22.73;100.00
45357;BME280;31092;51.924;21.448;2023-07-16T05:29:42;99920.38;;;22.66;100.00
45357;BME280;31092;51.924;21.448;2023-07-16T05:32:08;99908.09;;;22.68;100.00
45357;BME280;31092;51.924;21.448;2023-07-16T05:34:33;99890.34;;;22.76;100.00
45357;BME280;31092;51.924;21.448;2023-07-16T05:36:59;99942.06;;;23.23;100.00
45357;BME280;31092;51.924;21.448;2023-07-16T05:39:25;99910.22;;;23.27;100.00
45357;BME280;31092;51.924;21.448;2023-07-16T05:41:51;99946.66;;;23.66;100.00
45357;BME280;31092;51.924;21.448;2023-07-16T05:44:16;99884.56;;;23.43;100.00
45357;BME280;31092;51.924;21.448;2023-07-16T05:46:42;99923.50;;;23.84;100.00
45357;BME280;31092;51.924;21.448;2023-07-16T05:49:07;99876.06;;;23.72;100.00
45357;BME280;31092;51.924;21.448;2023-07-16T05:51:33;99883.69;;;23.97;100.00
45357;BME280;31092;51.924;21.448;2023-07-16T05:53:59;99877.78;;;24.53;100.00
45357;BME280;31092;51.924;21.448;2023-07-16T05:56:24;99937.56;;;26.09;100.00
45357;BME280;31092;51.924;21.448;2023-07-16T05:58:50;99906.63;;;26.32;100.00
45357;BME280;31092;51.924;21.448;2023-07-16T06:01:15;99882.09;;;25.95;100.00
45357;BME280;31092;51.924;21.448;2023-07-16T06:03:41;99933.97;;;26.03;100.00
45357;BME280;31092;51.924;21.448;2023-07-16T06:06:08;99873.22;;;25.52;100.00
45357;BME280;31092;51.924;21.448;2023-07-16T06:08:34;99862.16;;;25.37;100.00
45357;BME280;31092;51.924;21.448;2023-07-16T06:11:00;99943.63;;;25.80;100.00
45357;BME280;31092;51.924;21.448;2023-07-16T06:13:26;99873.47;;;25.45;100.00
45357;BME280;31092;51.924;21.448;2023-07-16T06:15:51;99882.09;;;26.25;100.00
45357;BME280;31092;51.924;21.448;2023-07-16T06:18:17;99892.75;;;26.73;100.00
45357;BME280;31092;51.924;21.448;2023-07-16T06:20:45;99901.94;;;26.58;100.00
45357;BME280;31092;51.924;21.448;2023-07-16T06:23:13;99939.47;;;26.59;100.00
45357;BME280;31092;51.924;21.448;2023-07-16T06:25:39;99883.72;;;26.26;100.00
45357;BME280;31092;51.924;21.448;2023-07-16T06:28:09;99923.72;;;26.60;100.00
45357;BME280;31092;51.924;21.448;2023-07-16T06:30:35;99864.41;;;26.47;100.00
45357;BME280;31092;51.924;21.448;2023-07-16T06:33:00;99865.25;;;27.07;100.00
45357;BME280;31092;51.924;21.448;2023-07-16T06:35:26;99914.00;;;27.92;100.00
45357;BME280;31092;51.924;21.448;2023-07-16T06:37:51;99887.53;;;28.44;100.00
45357;BME280;31092;51.924;21.448;2023-07-16T06:40:17;99914.16;;;28.93;100.00
45357;BME280;31092;51.924;21.448;2023-07-16T06:42:42;99870.81;;;28.54;100.00
45357;BME280;31092;51.924;21.448;2023-07-16T06:45:08;99882.47;;;28.22;100.00
45357;BME280;31092;51.924;21.448;2023-07-16T06:47:34;99876.13;;;27.87;100.00
45357;BME280;31092;51.924;21.448;2023-07-16T06:49:59;99892.78;;;27.82;100.00
45357;BME280;31092;51.924;21.448;2023-07-16T06:52:25;99926.88;;;28.07;100.00
45357;BME280;31092;51.924;21.448;2023-07-16T06:54:53;99943.06;;;28.29;100.00
45357;BME280;31092;51.924;21.448;2023-07-16T06:57:19;99937.78;;;28.61;100.00
45357;BME280;31092;51.924;21.448;2023-07-16T06:59:44;99891.66;;;28.71;100.00
45357;BME280;31092;51.924;21.448;2023-07-16T07:02:10;99918.97;;;28.82;100.00
45357;BME280;31092;51.924;21.448;2023-07-16T07:04:35;99869.22;;;28.48;100.00
45357;BME280;31092;51.924;21.448;2023-07-16T07:07:01;99934.13;;;28.90;100.00
45357;BME280;31092;51.924;21.448;2023-07-16T07:09:26;99852.31;;;28.50;100.00
45357;BME280;31092;51.924;21.448;2023-07-16T07:11:52;99938.28;;;29.17;100.00
45357;BME280;31092;51.924;21.448;2023-07-16T07:14:17;99869.00;;;28.87;100.00
45357;BME280;31092;51.924;21.448;2023-07-16T07:16:43;99925.09;;;29.27;100.00
45357;BME280;31092;51.924;21.448;2023-07-16T07:19:08;99886.91;;;29.00;100.00
45357;BME280;31092;51.924;21.448;2023-07-16T07:21:34;99880.81;;;28.98;100.00
45357;BME280;31092;51.924;21.448;2023-07-16T07:23:59;99877.38;;;29.06;100.00
45357;BME280;31092;51.924;21.448;2023-07-16T07:26:25;99899.66;;;29.20;100.00
45357;BME280;31092;51.924;21.448;2023-07-16T07:28:51;99937.34;;;29.45;100.00
45357;BME280;31092;51.924;21.448;2023-07-16T07:31:16;99884.63;;;29.26;100.00
45357;BME280;31092;51.924;21.448;2023-07-16T07:33:42;99938.22;;;29.65;100.00
45357;BME280;31092;51.924;21.448;2023-07-16T07:36:07;99941.28;;;29.82;100.00
45357;BME280;31092;51.924;21.448;2023-07-16T07:38:33;99911.94;;;29.76;100.00
45357;BME280;31092;51.924;21.448;2023-07-16T07:40:58;99893.19;;;29.87;100.00
45357;BME280;31092;51.924;21.448;2023-07-16T07:43:24;99933.28;;;30.32;100.00
45357;BME280;31092;51.924;21.448;2023-07-16T07:45:49;99931.16;;;30.57;100.00
45357;BME280;31092;51.924;21.448;2023-07-16T07:48:15;99911.41;;;30.72;100.00
45357;BME280;31092;51.924;21.448;2023-07-16T07:50:40;99874.84;;;30.65;100.00
45357;BME280;31092;51.924;21.448;2023-07-16T07:53:06;99874.97;;;30.87;100.00
45357;BME280;31092;51.924;21.448;2023-07-16T07:55:33;99868.25;;;31.02;100.00
45357;BME280;31092;51.924;21.448;2023-07-16T07:57:58;99890.59;;;31.24;100.00
45357;BME280;31092;51.924;21.448;2023-07-16T08:00:24;99873.50;;;31.31;100.00
45357;BME280;31092;51.924;21.448;2023-07-16T08:02:49;99872.44;;;31.41;100.00
45357;BME280;31092;51.924;21.448;2023-07-16T08:05:15;99862.53;;;31.48;100.00
45357;BME280;31092;51.924;21.448;2023-07-16T08:07:40;99924.88;;;31.84;100.00
45357;BME280;31092;51.924;21.448;2023-07-16T08:10:06;99874.34;;;31.77;100.00
45357;BME280;31092;51.924;21.448;2023-07-16T08:12:33;99915.38;;;32.30;100.00
45357;BME280;31092;51.924;21.448;2023-07-16T08:14:59;99878.41;;;32.38;100.00
45357;BME280;31092;51.924;21.448;2023-07-16T08:17:26;99920.28;;;32.86;100.00
45357;BME280;31092;51.924;21.448;2023-07-16T08:19:54;99859.03;;;32.64;100.00
45357;BME280;31092;51.924;21.448;2023-07-16T08:22:21;99860.06;;;32.77;100.00
45357;BME280;31092;51.924;21.448;2023-07-16T08:24:51;99918.13;;;33.23;100.00
45357;BME280;31092;51.924;21.448;2023-07-16T08:27:19;99912.38;;;33.37;100.00
45357;BME280;31092;51.924;21.448;2023-07-16T08:29:45;99915.75;;;33.48;100.00
45357;BME280;31092;51.924;21.448;2023-07-16T08:32:12;99859.53;;;33.23;100.00
45357;BME280;31092;51.924;21.448;2023-07-16T08:34:38;99904.25;;;33.49;100.00
45357;BME280;31092;51.924;21.448;2023-07-16T08:37:05;99890.22;;;33.41;100.00
45357;BME280;31092;51.924;21.448;2023-07-16T08:39:31;99903.41;;;33.57;100.00
45357;BME280;31092;51.924;21.448;2023-07-16T08:41:58;99913.13;;;33.77;100.00
45357;BME280;31092;51.924;21.448;2023-07-16T08:44:25;99917.88;;;33.85;100.00
45357;BME280;31092;51.924;21.448;2023-07-16T08:46:52;99910.16;;;33.82;100.00
45357;BME280;31092;51.924;21.448;2023-07-16T08:49:19;99920.81;;;33.89;100.00
45357;BME280;31092;51.924;21.448;2023-07-16T08:51:48;99872.53;;;33.80;100.00
45357;BME280;31092;51.924;21.448;2023-07-16T08:54:14;99852.00;;;33.50;100.00
45357;BME280;31092;51.924;21.448;2023-07-16T08:56:47;99869.09;;;33.74;100.00
45357;BME280;31092;51.924;21.448;2023-07-16T08:59:14;99923.44;;;34.12;100.00
45357;BME280;31092;51.924;21.448;2023-07-16T09:01:40;99913.75;;;33.92;100.00
45357;BME280;31092;51.924;21.448;2023-07-16T09:04:06;99916.88;;;33.90;100.00
45357;BME280;31092;51.924;21.448;2023-07-16T09:06:31;99865.97;;;33.50;100.00
45357;BME280;31092;51.924;21.448;2023-07-16T09:08:57;99906.03;;;33.89;100.00
45357;BME280;31092;51.924;21.448;2023-07-16T09:11:23;99916.22;;;34.11;100.00
45357;BME280;31092;51.924;21.448;2023-07-16T09:13:49;99866.25;;;33.83;100.00
45357;BME280;31092;51.924;21.448;2023-07-16T09:16:18;99910.25;;;34.38;100.00
45357;BME280;31092;51.924;21.448;2023-07-16T09:18:43;99932.03;;;34.71;100.00
45357;BME280;31092;51.924;21.448;2023-07-16T09:21:10;99881.63;;;34.41;100.00
45357;BME280;31092;51.924;21.448;2023-07-16T09:23:36;99955.13;;;34.59;100.00
45357;BME280;31092;51.924;21.448;2023-07-16T09:26:03;99938.44;;;34.80;100.00
45357;BME280;31092;51.924;21.448;2023-07-16T09:28:32;99881.25;;;34.60;100.00
45357;BME280;31092;51.924;21.448;2023-07-16T09:31:06;99906.84;;;34.79;100.00
45357;BME280;31092;51.924;21.448;2023-07-16T09:33:33;99948.25;;;34.95;100.00
45357;BME280;31092;51.924;21.448;2023-07-16T09:35:59;99892.28;;;34.57;100.00
45357;BME280;31092;51.924;21.448;2023-07-16T09:38:27;99937.56;;;34.88;100.00
45357;BME280;31092;51.924;21.448;2023-07-16T09:40:55;99878.38;;;34.30;100.00
45357;BME280;31092;51.924;21.448;2023-07-16T09:43:21;99885.19;;;33.77;100.00
45357;BME280;31092;51.924;21.448;2023-07-16T09:45:47;99881.56;;;33.68;100.00
45357;BME280;31092;51.924;21.448;2023-07-16T09:48:14;99878.75;;;33.85;100.00
45357;BME280;31092;51.924;21.448;2023-07-16T09:50:49;99904.50;;;34.52;100.00
45357;BME280;31092;51.924;21.448;2023-07-16T09:53:18;99863.84;;;34.46;100.00
45357;BME280;31092;51.924;21.448;2023-07-16T09:55:44;99894.88;;;34.70;100.00
45357;BME280;31092;51.924;21.448;2023-07-16T09:58:11;99917.47;;;34.48;100.00
45357;BME280;31092;51.924;21.448;2023-07-16T10:00:38;99881.22;;;34.04;100.00
45357;BME280;31092;51.924;21.448;2023-07-16T10:03:06;99843.22;;;34.21;100.00
45357;BME280;31092;51.924;21.448;2023-07-16T10:05:35;99922.34;;;34.68;100.00
45357;BME280;31092;51.924;21.448;2023-07-16T10:08:02;99933.28;;;34.91;100.00
45357;BME280;31092;51.924;21.448;2023-07-16T10:10:44;99930.03;;;35.18;100.00
45357;BME280;31092;51.924;21.448;2023-07-16T10:13:14;99908.25;;;35.24;100.00
45357;BME280;31092;51.924;21.448;2023-07-16T10:15:51;99906.25;;;35.33;100.00
45357;BME280;31092;51.924;21.448;2023-07-16T10:18:30;99843.69;;;34.99;100.00
45357;BME280;31092;51.924;21.448;2023-07-16T10:21:01;99888.88;;;35.40;100.00
45357;BME280;31092;51.924;21.448;2023-07-16T10:23:40;99913.88;;;35.45;100.00
45357;BME280;31092;51.924;21.448;2023-07-16T10:26:06;99845.84;;;35.02;99.39
45357;BME280;31092;51.924;21.448;2023-07-16T10:28:33;99863.88;;;34.84;100.00
45357;BME280;31092;51.924;21.448;2023-07-16T10:30:59;99899.50;;;34.58;100.00
45357;BME280;31092;51.924;21.448;2023-07-16T10:33:24;99866.22;;;34.26;100.00
45357;BME280;31092;51.924;21.448;2023-07-16T10:35:50;99835.78;;;34.34;100.00
45357;BME280;31092;51.924;21.448;2023-07-16T10:38:15;99903.66;;;34.90;100.00
45357;BME280;31092;51.924;21.448;2023-07-16T10:40:45;99859.00;;;34.72;100.00
45357;BME280;31092;51.924;21.448;2023-07-16T10:43:12;99852.75;;;35.05;99.65
45357;BME280;31092;51.924;21.448;2023-07-16T10:45:38;99859.19;;;35.26;99.69
45357;BME280;31092;51.924;21.448;2023-07-16T10:48:05;99877.97;;;35.26;98.89
45357;BME280;31092;51.924;21.448;2023-07-16T10:50:34;99850.00;;;35.17;96.44
45357;BME280;31092;51.924;21.448;2023-07-16T10:53:00;99894.03;;;35.59;94.45
45357;BME280;31092;51.924;21.448;2023-07-16T10:55:27;99904.38;;;35.16;92.23
45357;BME280;31092;51.924;21.448;2023-07-16T10:57:53;99911.41;;;35.52;94.95
45357;BME280;31092;51.924;21.448;2023-07-16T11:00:20;99904.19;;;35.42;93.86
45357;BME280;31092;51.924;21.448;2023-07-16T11:02:47;99907.91;;;35.55;94.17
45357;BME280;31092;51.924;21.448;2023-07-16T11:05:14;99904.72;;;35.36;94.73
45357;BME280;31092;51.924;21.448;2023-07-16T11:07:51;99847.59;;;35.07;93.25
45357;BME280;31092;51.924;21.448;2023-07-16T11:10:17;99856.31;;;35.35;91.26
45357;BME280;31092;51.924;21.448;2023-07-16T11:12:43;99885.50;;;35.25;89.96
45357;BME280;31092;51.924;21.448;2023-07-16T11:15:10;99843.56;;;34.66;88.85
45357;BME280;31092;51.924;21.448;2023-07-16T11:17:39;99913.28;;;34.71;89.32
45357;BME280;31092;51.924;21.448;2023-07-16T11:20:07;99905.16;;;34.31;89.37
45357;BME280;31092;51.924;21.448;2023-07-16T11:22:37;99887.00;;;33.91;90.43
45357;BME280;31092;51.924;21.448;2023-07-16T11:25:02;99906.53;;;34.08;91.10
45357;BME280;31092;51.924;21.448;2023-07-16T11:27:31;99860.19;;;34.16;91.60
45357;BME280;31092;51.924;21.448;2023-07-16T11:29:58;99915.00;;;34.93;90.93
45357;BME280;31092;51.924;21.448;2023-07-16T11:32:36;99830.03;;;34.98;90.53
45357;BME280;31092;51.924;21.448;2023-07-16T11:35:04;99906.75;;;35.77;88.40
45357;BME280;31092;51.924;21.448;2023-07-16T11:37:33;99883.00;;;35.95;84.90
45357;BME280;31092;51.924;21.448;2023-07-16T11:40:03;99898.19;;;35.94;84.91
45357;BME280;31092;51.924;21.448;2023-07-16T11:42:34;99864.50;;;35.40;83.05
45357;BME280;31092;51.924;21.448;2023-07-16T11:45:00;99801.53;;;35.25;85.31
45357;BME280;31092;51.924;21.448;2023-07-16T11:47:27;99837.78;;;35.64;85.43
45357;BME280;31092;51.924;21.448;2023-07-16T11:49:53;99891.13;;;36.09;86.54
45357;BME280;31092;51.924;21.448;2023-07-16T11:52:24;99825.38;;;35.86;87.43
45357;BME280;31092;51.924;21.448;2023-07-16T11:54:54;99883.47;;;36.31;84.86
45357;BME280;31092;51.924;21.448;2023-07-16T11:57:20;99879.47;;;36.19;85.50
45357;BME280;31092;51.924;21.448;2023-07-16T11:59:45;99883.78;;;35.84;84.99
45357;BME280;31092;51.924;21.448;2023-07-16T12:02:12;99891.91;;;35.77;86.70
45357;BME280;31092;51.924;21.448;2023-07-16T12:04:37;99883.94;;;35.66;88.07
45357;BME280;31092;51.924;21.448;2023-07-16T12:07:03;99877.41;;;35.74;88.93
45357;BME280;31092;51.924;21.448;2023-07-16T12:09:29;99870.44;;;35.81;89.87
45357;BME280;31092;51.924;21.448;2023-07-16T12:11:56;99868.75;;;35.67;91.03
45357;BME280;31092;51.924;21.448;2023-07-16T12:14:22;99874.91;;;35.10;91.62
45357;BME280;31092;51.924;21.448;2023-07-16T12:16:48;99829.50;;;34.37;93.69
45357;BME280;31092;51.924;21.448;2023-07-16T12:19:13;99874.41;;;34.78;94.88
45357;BME280;31092;51.924;21.448;2023-07-16T12:21:39;99873.03;;;35.23;94.93
45357;BME280;31092;51.924;21.448;2023-07-16T12:24:05;99829.25;;;35.18;94.15
45357;BME280;31092;51.924;21.448;2023-07-16T12:26:38;99878.31;;;35.66;93.35
45357;BME280;31092;51.924;21.448;2023-07-16T12:29:03;99805.84;;;35.23;94.25
45357;BME280;31092;51.924;21.448;2023-07-16T12:31:32;99798.28;;;35.23;94.67
45357;BME280;31092;51.924;21.448;2023-07-16T12:33:59;99824.69;;;35.35;94.14
45357;BME280;31092;51.924;21.448;2023-07-16T12:36:24;99876.97;;;34.92;95.88
45357;BME280;31092;51.924;21.448;2023-07-16T12:38:50;99875.13;;;34.20;98.64
45357;BME280;31092;51.924;21.448;2023-07-16T12:41:15;99814.88;;;33.32;100.00
45357;BME280;31092;51.924;21.448;2023-07-16T12:43:41;99801.88;;;33.19;100.00